sensor_id;sensor_type;location;lat;lon;timestamp;P1;durP1;ratioP1;P2;durP2;ratioP2
66542;SDS011;53395;37.360;-122.046;2023-02-15T00:02:25;3.35;;;1.00;;
66542;SDS011;53395;37.360;-122.046;2023-02-15T00:04:51;6.68;;;0.80;;
66542;SDS011;53395;37.360;-122.046;2023-02-15T00:07:18;8.43;;;1.02;;
66542;SDS011;53395;37.360;-122.046;2023-02-15T00:09:47;4.03;;;1.10;;
66542;SDS011;53395;37.360;-122.046;2023-02-15T00:12:13;6.55;;;1.20;;
66542;SDS011;53395;37.360;-122.046;2023-02-15T00:14:40;10.75;;;1.40;;
66542;SDS011;53395;37.360;-122.046;2023-02-15T00:17:05;6.85;;;1.15;;
66542;SDS011;53395;37.360;-122.046;2023-02-15T00:19:31;4.65;;;1.00;;
66542;SDS011;53395;37.360;-122.046;2023-02-15T00:21:57;9.48;;;1.38;;
66542;SDS011;53395;37.360;-122.046;2023-02-15T00:24:23;7.45;;;1.27;;
66542;SDS011;53395;37.360;-122.046;2023-02-15T00:26:49;9.93;;;3.78;;
66542;SDS011;53395;37.360;-122.046;2023-02-15T00:29:15;6.78;;;1.38;;
66542;SDS011;53395;37.360;-122.046;2023-02-15T00:31:41;9.55;;;2.13;;
66542;SDS011;53395;37.360;-122.046;2023-02-15T00:34:11;8.30;;;1.10;;
66542;SDS011;53395;37.360;-122.046;2023-02-15T00:36:38;9.88;;;1.30;;
66542;SDS011;53395;37.360;-122.046;2023-02-15T00:39:04;10.73;;;1.80;;
66542;SDS011;53395;37.360;-122.046;2023-02-15T00:41:31;8.68;;;1.30;;
66542;SDS011;53395;37.360;-122.046;2023-02-15T00:43:56;9.13;;;1.30;;
66542;SDS011;53395;37.360;-122.046;2023-02-15T00:46:22;11.98;;;1.48;;
66542;SDS011;53395;37.360;-122.046;2023-02-15T00:48:48;10.30;;;2.03;;
66542;SDS011;53395;37.360;-122.046;2023-02-15T00:51:14;10.27;;;1.80;;
66542;SDS011;53395;37.360;-122.046;2023-02-15T00:53:40;8.88;;;1.27;;
66542;SDS011;53395;37.360;-122.046;2023-02-15T00:56:06;11.63;;;1.50;;
66542;SDS011;53395;37.360;-122.046;2023-02-15T00:58:32;12.20;;;1.50;;
66542;SDS011;53395;37.360;-122.046;2023-02-15T01:01:02;11.35;;;1.63;;
66542;SDS011;53395;37.360;-122.046;2023-02-15T01:03:29;13.88;;;1.65;;
66542;SDS011;53395;37.360;-122.046;2023-02-15T01:05:55;9.07;;;1.45;;
66542;SDS011;53395;37.360;-122.046;2023-02-15T01:08:21;9.40;;;1.33;;
66542;SDS011;53395;37.360;-122.046;2023-02-15T01:10:46;6.30;;;1.17;;
66542;SDS011;53395;37.360;-122.046;2023-02-15T01:13:13;6.47;;;1.20;;
66542;SDS011;53395;37.360;-122.046;2023-02-15T01:15:40;7.20;;;1.50;;
66542;SDS011;53395;37.360;-122.046;2023-02-15T01:18:05;6.75;;;1.13;;
66542;SDS011;53395;37.360;-122.046;2023-02-15T01:20:34;7.18;;;1.50;;
66542;SDS011;53395;37.360;-122.046;2023-02-15T01:23:00;8.60;;;1.48;;
66542;SDS011;53395;37.360;-122.046;2023-02-15T01:25:26;11.20;;;1.50;;
66542;SDS011;53395;37.360;-122.046;2023-02-15T01:30:18;13.00;;;2.17;;
66542;SDS011;53395;37.360;-122.046;2023-02-15T01:32:44;14.90;;;1.88;;
66542;SDS011;53395;37.360;-122.046;2023-02-15T01:35:10;12.00;;;1.63;;
66542;SDS011;53395;37.360;-122.046;2023-02-15T01:37:36;11.38;;;1.88;;
66542;SDS011;53395;37.360;-122.046;2023-02-15T01:40:03;14.48;;;2.20;;
66542;SDS011;53395;37.360;-122.046;2023-02-15T01:44:55;14.45;;;1.88;;
66542;SDS011;53395;37.360;-122.046;2023-02-15T01:47:32;14.98;;;1.75;;
66542;SDS011;53395;37.360;-122.046;2023-02-15T01:50:04;11.85;;;1.60;;
66542;SDS011;53395;37.360;-122.046;2023-02-15T01:52:32;11.75;;;1.30;;
66542;SDS011;53395;37.360;-122.046;2023-02-15T01:54:59;8.77;;;1.60;;
66542;SDS011;53395;37.360;-122.046;2023-02-15T01:57:25;9.68;;;1.30;;
66542;SDS011;53395;37.360;-122.046;2023-02-15T01:59:53;8.98;;;1.70;;
66542;SDS011;53395;37.360;-122.046;2023-02-15T02:02:20;8.75;;;1.20;;
66542;SDS011;53395;37.360;-122.046;2023-02-15T02:04:52;10.43;;;1.10;;
66542;SDS011;53395;37.360;-122.046;2023-02-15T02:07:20;8.13;;;1.65;;
66542;SDS011;53395;37.360;-122.046;2023-02-15T02:09:47;9.20;;;1.77;;
66542;SDS011;53395;37.360;-122.046;2023-02-15T02:12:14;9.30;;;1.40;;
66542;SDS011;53395;37.360;-122.046;2023-02-15T02:14:40;12.98;;;1.58;;
66542;SDS011;53395;37.360;-122.046;2023-02-15T02:19:54;10.50;;;1.30;;
66542;SDS011;53395;37.360;-122.046;2023-02-15T02:25:30;12.48;;;1.77;;
66542;SDS011;53395;37.360;-122.046;2023-02-15T02:31:27;6.80;;;1.10;;
66542;SDS011;53395;37.360;-122.046;2023-02-15T02:36:11;5.88;;;1.13;;
66542;SDS011;53395;37.360;-122.046;2023-02-15T02:38:42;7.30;;;1.33;;
66542;SDS011;53395;37.360;-122.046;2023-02-15T02:43:51;11.57;;;1.65;;
66542;SDS011;53395;37.360;-122.046;2023-02-15T02:46:20;10.38;;;2.13;;
66542;SDS011;53395;37.360;-122.046;2023-02-15T02:48:48;14.18;;;1.60;;
66542;SDS011;53395;37.360;-122.046;2023-02-15T02:51:14;9.75;;;1.42;;
66542;SDS011;53395;37.360;-122.046;2023-02-15T02:53:47;10.30;;;1.20;;
66542;SDS011;53395;37.360;-122.046;2023-02-15T02:56:23;11.45;;;1.52;;
66542;SDS011;53395;37.360;-122.046;2023-02-15T02:59:00;10.38;;;1.50;;
66542;SDS011;53395;37.360;-122.046;2023-02-15T03:01:50;11.25;;;2.13;;
66542;SDS011;53395;37.360;-122.046;2023-02-15T03:04:24;8.48;;;1.77;;
66542;SDS011;53395;37.360;-122.046;2023-02-15T03:07:04;10.50;;;1.92;;
66542;SDS011;53395;37.360;-122.046;2023-02-15T03:09:33;7.80;;;1.90;;
66542;SDS011;53395;37.360;-122.046;2023-02-15T03:12:08;9.10;;;1.50;;
66542;SDS011;53395;37.360;-122.046;2023-02-15T03:14:36;9.63;;;1.73;;
66542;SDS011;53395;37.360;-122.046;2023-02-15T03:17:03;9.73;;;1.70;;
66542;SDS011;53395;37.360;-122.046;2023-02-15T03:19:30;13.07;;;1.73;;
66542;SDS011;53395;37.360;-122.046;2023-02-15T03:22:00;11.77;;;2.13;;
66542;SDS011;53395;37.360;-122.046;2023-02-15T03:27:28;10.18;;;2.33;;
66542;SDS011;53395;37.360;-122.046;2023-02-15T03:29:58;10.10;;;2.10;;
66542;SDS011;53395;37.360;-122.046;2023-02-15T03:32:25;8.55;;;1.70;;
66542;SDS011;53395;37.360;-122.046;2023-02-15T03:34:52;7.93;;;1.50;;
66542;SDS011;53395;37.360;-122.046;2023-02-15T03:37:40;17.48;;;1.83;;
66542;SDS011;53395;37.360;-122.046;2023-02-15T03:45:15;10.70;;;1.60;;
66542;SDS011;53395;37.360;-122.046;2023-02-15T03:47:46;13.88;;;3.00;;
66542;SDS011;53395;37.360;-122.046;2023-02-15T03:50:13;17.63;;;2.65;;
66542;SDS011;53395;37.360;-122.046;2023-02-15T03:53:00;10.73;;;1.70;;
66542;SDS011;53395;37.360;-122.046;2023-02-15T03:55:27;13.05;;;2.45;;
66542;SDS011;53395;37.360;-122.046;2023-02-15T03:57:53;13.55;;;2.67;;
66542;SDS011;53395;37.360;-122.046;2023-02-15T04:00:38;10.18;;;1.92;;
66542;SDS011;53395;37.360;-122.046;2023-02-15T04:03:39;12.52;;;2.53;;
66542;SDS011;53395;37.360;-122.046;2023-02-15T04:06:05;14.40;;;2.22;;
66542;SDS011;53395;37.360;-122.046;2023-02-15T04:08:31;9.57;;;2.67;;
66542;SDS011;53395;37.360;-122.046;2023-02-15T04:11:15;11.73;;;2.38;;
66542;SDS011;53395;37.360;-122.046;2023-02-15T04:13:41;13.40;;;2.53;;
66542;SDS011;53395;37.360;-122.046;2023-02-15T04:16:07;12.68;;;1.98;;
66542;SDS011;53395;37.360;-122.046;2023-02-15T04:18:37;13.55;;;2.30;;
66542;SDS011;53395;37.360;-122.046;2023-02-15T04:21:21;18.48;;;3.05;;
66542;SDS011;53395;37.360;-122.046;2023-02-15T04:24:06;14.90;;;3.42;;
66542;SDS011;53395;37.360;-122.046;2023-02-15T04:26:51;15.20;;;2.90;;
66542;SDS011;53395;37.360;-122.046;2023-02-15T04:29:20;12.98;;;2.58;;
66542;SDS011;53395;37.360;-122.046;2023-02-15T04:31:46;15.20;;;2.33;;
66542;SDS011;53395;37.360;-122.046;2023-02-15T04:34:12;15.20;;;2.92;;
66542;SDS011;53395;37.360;-122.046;2023-02-15T04:36:38;20.52;;;2.90;;
66542;SDS011;53395;37.360;-122.046;2023-02-15T04:39:05;15.98;;;2.13;;
66542;SDS011;53395;37.360;-122.046;2023-02-15T04:41:31;14.85;;;2.67;;
66542;SDS011;53395;37.360;-122.046;2023-02-15T04:43:57;15.93;;;2.25;;
66542;SDS011;53395;37.360;-122.046;2023-02-15T04:46:23;13.50;;;2.72;;
66542;SDS011;53395;37.360;-122.046;2023-02-15T04:48:49;12.48;;;2.75;;
66542;SDS011;53395;37.360;-122.046;2023-02-15T04:51:14;14.00;;;2.85;;
66542;SDS011;53395;37.360;-122.046;2023-02-15T04:53:40;14.98;;;2.90;;
66542;SDS011;53395;37.360;-122.046;2023-02-15T04:56:06;15.75;;;2.38;;
66542;SDS011;53395;37.360;-122.046;2023-02-15T04:58:32;13.93;;;2.67;;
66542;SDS011;53395;37.360;-122.046;2023-02-15T05:00:58;12.13;;;2.72;;
66542;SDS011;53395;37.360;-122.046;2023-02-15T05:03:24;13.82;;;2.47;;
66542;SDS011;53395;37.360;-122.046;2023-02-15T05:05:50;29.73;;;4.85;;
66542;SDS011;53395;37.360;-122.046;2023-02-15T05:08:16;15.13;;;2.08;;
66542;SDS011;53395;37.360;-122.046;2023-02-15T05:10:42;14.85;;;2.60;;
66542;SDS011;53395;37.360;-122.046;2023-02-15T05:13:08;14.90;;;2.90;;
66542;SDS011;53395;37.360;-122.046;2023-02-15T05:15:34;12.15;;;1.90;;
66542;SDS011;53395;37.360;-122.046;2023-02-15T05:17:59;15.10;;;2.63;;
66542;SDS011;53395;37.360;-122.046;2023-02-15T05:22:55;14.02;;;2.40;;
66542;SDS011;53395;37.360;-122.046;2023-02-15T05:25:21;10.65;;;2.10;;
66542;SDS011;53395;37.360;-122.046;2023-02-15T05:28:05;10.55;;;2.55;;
66542;SDS011;53395;37.360;-122.046;2023-02-15T05:30:48;10.73;;;1.95;;
66542;SDS011;53395;37.360;-122.046;2023-02-15T05:33:15;17.48;;;1.83;;
66542;SDS011;53395;37.360;-122.046;2023-02-15T05:35:41;14.18;;;1.80;;
66542;SDS011;53395;37.360;-122.046;2023-02-15T05:38:06;10.20;;;1.85;;
66542;SDS011;53395;37.360;-122.046;2023-02-15T05:40:32;12.45;;;1.85;;
66542;SDS011;53395;37.360;-122.046;2023-02-15T05:42:58;11.73;;;2.25;;
66542;SDS011;53395;37.360;-122.046;2023-02-15T05:45:24;12.55;;;2.40;;
66542;SDS011;53395;37.360;-122.046;2023-02-15T05:47:50;7.28;;;2.10;;
66542;SDS011;53395;37.360;-122.046;2023-02-15T05:50:16;7.95;;;1.88;;
66542;SDS011;53395;37.360;-122.046;2023-02-15T05:52:42;11.63;;;2.42;;
66542;SDS011;53395;37.360;-122.046;2023-02-15T05:55:08;7.03;;;2.25;;
66542;SDS011;53395;37.360;-122.046;2023-02-15T05:57:34;9.27;;;1.77;;
66542;SDS011;53395;37.360;-122.046;2023-02-15T06:00:01;9.57;;;1.80;;
66542;SDS011;53395;37.360;-122.046;2023-02-15T06:02:29;11.38;;;2.95;;
66542;SDS011;53395;37.360;-122.046;2023-02-15T06:04:55;9.77;;;1.45;;
66542;SDS011;53395;37.360;-122.046;2023-02-15T06:07:21;7.05;;;1.35;;
66542;SDS011;53395;37.360;-122.046;2023-02-15T06:09:47;12.00;;;2.03;;
66542;SDS011;53395;37.360;-122.046;2023-02-15T06:12:13;9.95;;;1.55;;
66542;SDS011;53395;37.360;-122.046;2023-02-15T06:14:38;5.93;;;1.52;;
66542;SDS011;53395;37.360;-122.046;2023-02-15T06:17:05;8.55;;;2.15;;
66542;SDS011;53395;37.360;-122.046;2023-02-15T06:19:30;7.15;;;1.48;;
66542;SDS011;53395;37.360;-122.046;2023-02-15T06:21:56;7.60;;;1.27;;
66542;SDS011;53395;37.360;-122.046;2023-02-15T06:24:22;8.70;;;1.27;;
66542;SDS011;53395;37.360;-122.046;2023-02-15T06:26:48;5.90;;;1.50;;
66542;SDS011;53395;37.360;-122.046;2023-02-15T06:29:14;3.10;;;0.93;;
66542;SDS011;53395;37.360;-122.046;2023-02-15T06:31:40;11.55;;;1.45;;
66542;SDS011;53395;37.360;-122.046;2023-02-15T06:34:05;4.90;;;1.08;;
66542;SDS011;53395;37.360;-122.046;2023-02-15T06:36:31;5.03;;;1.00;;
66542;SDS011;53395;37.360;-122.046;2023-02-15T06:38:57;6.43;;;1.40;;
66542;SDS011;53395;37.360;-122.046;2023-02-15T06:41:23;5.63;;;1.20;;
66542;SDS011;53395;37.360;-122.046;2023-02-15T06:43:49;9.30;;;1.33;;
66542;SDS011;53395;37.360;-122.046;2023-02-15T06:46:15;8.25;;;1.20;;
66542;SDS011;53395;37.360;-122.046;2023-02-15T06:48:41;6.47;;;1.13;;
66542;SDS011;53395;37.360;-122.046;2023-02-15T06:51:07;7.95;;;1.23;;
66542;SDS011;53395;37.360;-122.046;2023-02-15T06:53:33;9.50;;;1.10;;
66542;SDS011;53395;37.360;-122.046;2023-02-15T06:56:05;6.68;;;1.00;;
66542;SDS011;53395;37.360;-122.046;2023-02-15T06:58:32;4.90;;;1.42;;
66542;SDS011;53395;37.360;-122.046;2023-02-15T07:00:58;2.97;;;0.88;;
66542;SDS011;53395;37.360;-122.046;2023-02-15T07:03:24;5.53;;;1.13;;
66542;SDS011;53395;37.360;-122.046;2023-02-15T07:05:53;5.50;;;1.13;;
66542;SDS011;53395;37.360;-122.046;2023-02-15T07:08:19;3.65;;;1.13;;
66542;SDS011;53395;37.360;-122.046;2023-02-15T07:10:45;2.72;;;1.10;;
66542;SDS011;53395;37.360;-122.046;2023-02-15T07:13:11;4.68;;;1.20;;
66542;SDS011;53395;37.360;-122.046;2023-02-15T07:15:37;5.10;;;1.48;;
66542;SDS011;53395;37.360;-122.046;2023-02-15T07:18:03;6.05;;;1.13;;
66542;SDS011;53395;37.360;-122.046;2023-02-15T07:20:30;5.20;;;1.10;;
66542;SDS011;53395;37.360;-122.046;2023-02-15T07:22:56;3.42;;;1.05;;
66542;SDS011;53395;37.360;-122.046;2023-02-15T07:25:22;4.57;;;0.80;;
66542;SDS011;53395;37.360;-122.046;2023-02-15T07:27:47;4.07;;;1.10;;
66542;SDS011;53395;37.360;-122.046;2023-02-15T07:30:14;5.25;;;0.80;;
66542;SDS011;53395;37.360;-122.046;2023-02-15T07:35:26;2.85;;;0.80;;
66542;SDS011;53395;37.360;-122.046;2023-02-15T07:37:51;3.00;;;0.60;;
66542;SDS011;53395;37.360;-122.046;2023-02-15T07:40:18;5.05;;;0.80;;
66542;SDS011;53395;37.360;-122.046;2023-02-15T07:42:44;4.13;;;0.93;;
66542;SDS011;53395;37.360;-122.046;2023-02-15T07:45:10;4.90;;;0.82;;
66542;SDS011;53395;37.360;-122.046;2023-02-15T07:47:36;2.53;;;0.73;;
66542;SDS011;53395;37.360;-122.046;2023-02-15T07:50:02;5.93;;;0.90;;
66542;SDS011;53395;37.360;-122.046;2023-02-15T07:52:28;3.53;;;0.70;;
66542;SDS011;53395;37.360;-122.046;2023-02-15T07:54:53;2.92;;;0.80;;
66542;SDS011;53395;37.360;-122.046;2023-02-15T07:57:19;4.78;;;0.80;;
66542;SDS011;53395;37.360;-122.046;2023-02-15T07:59:45;3.30;;;0.80;;
66542;SDS011;53395;37.360;-122.046;2023-02-15T08:02:11;1.88;;;0.60;;
66542;SDS011;53395;37.360;-122.046;2023-02-15T08:04:37;4.35;;;0.73;;
66542;SDS011;53395;37.360;-122.046;2023-02-15T08:07:03;5.80;;;0.70;;
66542;SDS011;53395;37.360;-122.046;2023-02-15T08:09:29;3.17;;;0.60;;
66542;SDS011;53395;37.360;-122.046;2023-02-15T08:11:55;3.47;;;0.88;;
66542;SDS011;53395;37.360;-122.046;2023-02-15T08:14:21;3.92;;;0.80;;
66542;SDS011;53395;37.360;-122.046;2023-02-15T08:16:53;2.95;;;0.90;;
66542;SDS011;53395;37.360;-122.046;2023-02-15T08:19:25;2.55;;;0.73;;
66542;SDS011;53395;37.360;-122.046;2023-02-15T08:21:52;3.35;;;0.70;;
66542;SDS011;53395;37.360;-122.046;2023-02-15T08:24:19;4.30;;;0.60;;
66542;SDS011;53395;37.360;-122.046;2023-02-15T08:29:12;3.40;;;0.60;;
66542;SDS011;53395;37.360;-122.046;2023-02-15T08:31:39;3.58;;;0.70;;
66542;SDS011;53395;37.360;-122.046;2023-02-15T08:34:06;3.20;;;0.70;;
66542;SDS011;53395;37.360;-122.046;2023-02-15T08:36:32;4.85;;;1.55;;
66542;SDS011;53395;37.360;-122.046;2023-02-15T08:38:58;4.28;;;0.75;;
66542;SDS011;53395;37.360;-122.046;2023-02-15T08:41:25;1.70;;;0.65;;
66542;SDS011;53395;37.360;-122.046;2023-02-15T08:46:17;2.80;;;0.60;;
66542;SDS011;53395;37.360;-122.046;2023-02-15T08:48:43;2.85;;;0.50;;
66542;SDS011;53395;37.360;-122.046;2023-02-15T08:51:11;3.55;;;0.77;;
66542;SDS011;53395;37.360;-122.046;2023-02-15T08:53:38;3.80;;;0.70;;
66542;SDS011;53395;37.360;-122.046;2023-02-15T08:56:05;4.90;;;0.70;;
66542;SDS011;53395;37.360;-122.046;2023-02-15T08:58:31;5.05;;;0.90;;
66542;SDS011;53395;37.360;-122.046;2023-02-15T09:00:57;5.30;;;0.80;;
66542;SDS011;53395;37.360;-122.046;2023-02-15T09:03:23;3.60;;;0.80;;
66542;SDS011;53395;37.360;-122.046;2023-02-15T09:05:49;1.88;;;0.52;;
66542;SDS011;53395;37.360;-122.046;2023-02-15T09:08:15;3.13;;;0.65;;
66542;SDS011;53395;37.360;-122.046;2023-02-15T09:10:41;1.65;;;0.60;;
66542;SDS011;53395;37.360;-122.046;2023-02-15T09:13:07;2.65;;;0.52;;
66542;SDS011;53395;37.360;-122.046;2023-02-15T09:15:33;2.70;;;0.60;;
66542;SDS011;53395;37.360;-122.046;2023-02-15T09:17:59;3.63;;;0.60;;
66542;SDS011;53395;37.360;-122.046;2023-02-15T09:20:27;3.03;;;0.77;;
66542;SDS011;53395;37.360;-122.046;2023-02-15T09:22:54;3.80;;;0.75;;
66542;SDS011;53395;37.360;-122.046;2023-02-15T09:25:20;4.43;;;0.50;;
66542;SDS011;53395;37.360;-122.046;2023-02-15T09:27:45;1.40;;;0.40;;
66542;SDS011;53395;37.360;-122.046;2023-02-15T09:30:11;3.10;;;0.70;;
66542;SDS011;53395;37.360;-122.046;2023-02-15T09:32:37;2.65;;;0.52;;
66542;SDS011;53395;37.360;-122.046;2023-02-15T09:35:03;2.88;;;0.50;;
66542;SDS011;53395;37.360;-122.046;2023-02-15T09:37:32;1.30;;;0.47;;
66542;SDS011;53395;37.360;-122.046;2023-02-15T09:39:58;2.10;;;0.43;;
66542;SDS011;53395;37.360;-122.046;2023-02-15T09:45:52;2.90;;;0.55;;
66542;SDS011;53395;37.360;-122.046;2023-02-15T09:48:11;1.73;;;0.93;;
66542;SDS011;53395;37.360;-122.046;2023-02-15T10:04:06;2.30;;;0.60;;
66542;SDS011;53395;37.360;-122.046;2023-02-15T10:09:18;2.80;;;0.50;;
66542;SDS011;53395;37.360;-122.046;2023-02-15T10:14:37;3.15;;;0.50;;
66542;SDS011;53395;37.360;-122.046;2023-02-15T10:17:15;2.88;;;0.45;;
66542;SDS011;53395;37.360;-122.046;2023-02-15T10:22:32;1.02;;;0.30;;
66542;SDS011;53395;37.360;-122.046;2023-02-15T10:27:29;2.03;;;0.40;;
66542;SDS011;53395;37.360;-122.046;2023-02-15T10:32:48;3.22;;;0.40;;
66542;SDS011;53395;37.360;-122.046;2023-02-15T10:35:25;2.00;;;0.40;;
66542;SDS011;53395;37.360;-122.046;2023-02-15T10:38:01;2.13;;;0.35;;
66542;SDS011;53395;37.360;-122.046;2023-02-15T10:40:33;1.80;;;0.40;;
66542;SDS011;53395;37.360;-122.046;2023-02-15T10:51:02;1.17;;;0.40;;
66542;SDS011;53395;37.360;-122.046;2023-02-15T11:01:25;1.27;;;0.40;;
66542;SDS011;53395;37.360;-122.046;2023-02-15T11:04:09;2.22;;;0.47;;
66542;SDS011;53395;37.360;-122.046;2023-02-15T11:06:39;1.60;;;0.30;;
66542;SDS011;53395;37.360;-122.046;2023-02-15T11:09:10;1.90;;;0.45;;
66542;SDS011;53395;37.360;-122.046;2023-02-15T11:11:38;1.17;;;0.38;;
66542;SDS011;53395;37.360;-122.046;2023-02-15T11:14:10;1.85;;;0.50;;
66542;SDS011;53395;37.360;-122.046;2023-02-15T11:16:40;1.75;;;0.40;;
66542;SDS011;53395;37.360;-122.046;2023-02-15T11:19:19;2.28;;;0.40;;
66542;SDS011;53395;37.360;-122.046;2023-02-15T11:21:47;1.02;;;0.30;;
66542;SDS011;53395;37.360;-122.046;2023-02-15T11:24:18;2.45;;;0.50;;
66542;SDS011;53395;37.360;-122.046;2023-02-15T11:29:41;1.45;;;0.40;;
66542;SDS011;53395;37.360;-122.046;2023-02-15T11:34:56;1.08;;;0.40;;
66542;SDS011;53395;37.360;-122.046;2023-02-15T11:37:28;2.13;;;0.30;;
66542;SDS011;53395;37.360;-122.046;2023-02-15T11:39:56;1.20;;;0.40;;
66542;SDS011;53395;37.360;-122.046;2023-02-15T11:42:23;2.35;;;0.60;;
66542;SDS011;53395;37.360;-122.046;2023-02-15T11:44:56;2.20;;;0.38;;
66542;SDS011;53395;37.360;-122.046;2023-02-15T11:47:24;2.75;;;0.47;;
66542;SDS011;53395;37.360;-122.046;2023-02-15T11:49:50;2.30;;;0.60;;
66542;SDS011;53395;37.360;-122.046;2023-02-15T11:52:16;0.70;;;0.25;;
66542;SDS011;53395;37.360;-122.046;2023-02-15T11:54:49;2.28;;;0.50;;
66542;SDS011;53395;37.360;-122.046;2023-02-15T11:59:56;1.95;;;0.45;;
66542;SDS011;53395;37.360;-122.046;2023-02-15T12:02:23;2.22;;;0.40;;
66542;SDS011;53395;37.360;-122.046;2023-02-15T12:04:54;0.43;;;0.20;;
66542;SDS011;53395;37.360;-122.046;2023-02-15T12:07:28;1.15;;;0.32;;
66542;SDS011;53395;37.360;-122.046;2023-02-15T12:14:55;1.08;;;0.35;;
66542;SDS011;53395;37.360;-122.046;2023-02-15T12:17:22;1.30;;;0.40;;
66542;SDS011;53395;37.360;-122.046;2023-02-15T12:19:48;1.92;;;0.50;;
66542;SDS011;53395;37.360;-122.046;2023-02-15T12:24:46;2.75;;;0.40;;
66542;SDS011;53395;37.360;-122.046;2023-02-15T12:29:42;2.25;;;0.43;;
66542;SDS011;53395;37.360;-122.046;2023-02-15T12:32:10;2.75;;;0.47;;
66542;SDS011;53395;37.360;-122.046;2023-02-15T12:34:37;1.10;;;0.30;;
66542;SDS011;53395;37.360;-122.046;2023-02-15T12:37:09;1.58;;;0.40;;
66542;SDS011;53395;37.360;-122.046;2023-02-15T12:39:36;1.85;;;0.40;;
66542;SDS011;53395;37.360;-122.046;2023-02-15T12:42:03;0.90;;;0.30;;
66542;SDS011;53395;37.360;-122.046;2023-02-15T12:44:30;0.80;;;0.35;;
66542;SDS011;53395;37.360;-122.046;2023-02-15T12:49:23;1.02;;;0.30;;
66542;SDS011;53395;37.360;-122.046;2023-02-15T12:51:53;1.52;;;0.30;;
66542;SDS011;53395;37.360;-122.046;2023-02-15T12:56:48;1.55;;;0.43;;
66542;SDS011;53395;37.360;-122.046;2023-02-15T12:59:14;0.93;;;0.40;;
66542;SDS011;53395;37.360;-122.046;2023-02-15T13:01:41;2.97;;;0.50;;
66542;SDS011;53395;37.360;-122.046;2023-02-15T13:04:27;1.13;;;0.38;;
66542;SDS011;53395;37.360;-122.046;2023-02-15T13:06:55;1.48;;;0.38;;
66542;SDS011;53395;37.360;-122.046;2023-02-15T13:11:57;2.40;;;0.47;;
66542;SDS011;53395;37.360;-122.046;2023-02-15T13:14:32;1.77;;;0.35;;
66542;SDS011;53395;37.360;-122.046;2023-02-15T13:16:58;1.23;;;0.43;;
66542;SDS011;53395;37.360;-122.046;2023-02-15T13:19:36;1.52;;;0.30;;
66542;SDS011;53395;37.360;-122.046;2023-02-15T13:22:05;1.13;;;0.40;;
66542;SDS011;53395;37.360;-122.046;2023-02-15T13:24:43;0.90;;;0.30;;
66542;SDS011;53395;37.360;-122.046;2023-02-15T13:27:12;1.00;;;0.40;;
66542;SDS011;53395;37.360;-122.046;2023-02-15T13:29:39;0.40;;;0.20;;
66542;SDS011;53395;37.360;-122.046;2023-02-15T13:32:13;1.90;;;0.30;;
66542;SDS011;53395;37.360;-122.046;2023-02-15T13:34:45;0.68;;;0.28;;
66542;SDS011;53395;37.360;-122.046;2023-02-15T13:39:51;0.80;;;0.30;;
66542;SDS011;53395;37.360;-122.046;2023-02-15T13:42:25;1.67;;;0.40;;
66542;SDS011;53395;37.360;-122.046;2023-02-15T13:52:57;2.13;;;0.30;;
66542;SDS011;53395;37.360;-122.046;2023-02-15T13:55:47;1.15;;;0.40;;
66542;SDS011;53395;37.360;-122.046;2023-02-15T14:00:52;0.50;;;0.30;;
66542;SDS011;53395;37.360;-122.046;2023-02-15T14:11:06;1.45;;;0.28;;
66542;SDS011;53395;37.360;-122.046;2023-02-15T14:13:49;0.77;;;0.25;;
66542;SDS011;53395;37.360;-122.046;2023-02-15T14:21:47;1.13;;;0.40;;
66542;SDS011;53395;37.360;-122.046;2023-02-15T14:27:08;2.50;;;0.32;;
66542;SDS011;53395;37.360;-122.046;2023-02-15T14:32:24;1.48;;;0.30;;
66542;SDS011;53395;37.360;-122.046;2023-02-15T14:34:57;1.80;;;0.40;;
66542;SDS011;53395;37.360;-122.046;2023-02-15T14:37:38;1.65;;;0.50;;
66542;SDS011;53395;37.360;-122.046;2023-02-15T14:40:08;1.45;;;0.22;;
66542;SDS011;53395;37.360;-122.046;2023-02-15T14:43:02;1.65;;;0.30;;
66542;SDS011;53395;37.360;-122.046;2023-02-15T14:48:31;1.30;;;0.38;;
66542;SDS011;53395;37.360;-122.046;2023-02-15T14:50:49;0.82;;;0.30;;
66542;SDS011;53395;37.360;-122.046;2023-02-15T14:58:35;2.33;;;0.35;;
66542;SDS011;53395;37.360;-122.046;2023-02-15T15:01:07;0.80;;;0.30;;
66542;SDS011;53395;37.360;-122.046;2023-02-15T15:03:34;1.75;;;0.35;;
66542;SDS011;53395;37.360;-122.046;2023-02-15T15:06:01;0.85;;;0.38;;
66542;SDS011;53395;37.360;-122.046;2023-02-15T15:10:56;0.70;;;0.30;;
66542;SDS011;53395;37.360;-122.046;2023-02-15T15:18:46;1.33;;;0.28;;
66542;SDS011;53395;37.360;-122.046;2023-02-15T15:21:51;3.35;;;0.30;;
66542;SDS011;53395;37.360;-122.046;2023-02-15T15:23:58;1.17;;;0.28;;
66542;SDS011;53395;37.360;-122.046;2023-02-15T15:26:25;1.05;;;0.30;;
66542;SDS011;53395;37.360;-122.046;2023-02-15T15:31:18;2.53;;;0.43;;
66542;SDS011;53395;37.360;-122.046;2023-02-15T15:36:50;1.52;;;0.40;;
66542;SDS011;53395;37.360;-122.046;2023-02-15T15:40:00;1.58;;;0.50;;
66542;SDS011;53395;37.360;-122.046;2023-02-15T15:42:25;1.90;;;0.55;;
66542;SDS011;53395;37.360;-122.046;2023-02-15T15:50:14;7.97;;;2.60;;
66542;SDS011;53395;37.360;-122.046;2023-02-15T15:52:41;3.25;;;1.10;;
66542;SDS011;53395;37.360;-122.046;2023-02-15T15:55:17;2.53;;;0.63;;
66542;SDS011;53395;37.360;-122.046;2023-02-15T15:57:43;3.13;;;0.75;;
66542;SDS011;53395;37.360;-122.046;2023-02-15T16:02:54;3.35;;;0.90;;
66542;SDS011;53395;37.360;-122.046;2023-02-15T16:05:22;3.92;;;0.88;;
66542;SDS011;53395;37.360;-122.046;2023-02-15T16:07:49;2.50;;;0.63;;
66542;SDS011;53395;37.360;-122.046;2023-02-15T16:10:22;2.13;;;0.70;;
66542;SDS011;53395;37.360;-122.046;2023-02-15T16:12:48;3.28;;;0.70;;
66542;SDS011;53395;37.360;-122.046;2023-02-15T16:15:16;2.95;;;0.73;;
66542;SDS011;53395;37.360;-122.046;2023-02-15T16:17:43;1.73;;;0.52;;
66542;SDS011;53395;37.360;-122.046;2023-02-15T16:22:39;1.83;;;0.60;;
66542;SDS011;53395;37.360;-122.046;2023-02-15T16:27:49;0.55;;;0.30;;
66542;SDS011;53395;37.360;-122.046;2023-02-15T16:30:21;1.05;;;0.38;;
66542;SDS011;53395;37.360;-122.046;2023-02-15T16:32:47;4.32;;;0.40;;
66542;SDS011;53395;37.360;-122.046;2023-02-15T16:35:18;3.70;;;0.40;;
66542;SDS011;53395;37.360;-122.046;2023-02-15T16:37:44;1.48;;;0.30;;
66542;SDS011;53395;37.360;-122.046;2023-02-15T16:40:56;2.30;;;0.30;;
66542;SDS011;53395;37.360;-122.046;2023-02-15T16:43:04;1.20;;;0.40;;
66542;SDS011;53395;37.360;-122.046;2023-02-15T16:45:32;0.82;;;0.28;;
66542;SDS011;53395;37.360;-122.046;2023-02-15T16:48:04;0.73;;;0.25;;
66542;SDS011;53395;37.360;-122.046;2023-02-15T16:50:33;0.65;;;0.30;;
66542;SDS011;53395;37.360;-122.046;2023-02-15T16:52:59;0.95;;;0.30;;
66542;SDS011;53395;37.360;-122.046;2023-02-15T16:55:27;1.98;;;0.30;;
66542;SDS011;53395;37.360;-122.046;2023-02-15T16:57:57;0.77;;;0.28;;
66542;SDS011;53395;37.360;-122.046;2023-02-15T17:00:26;0.30;;;0.15;;
66542;SDS011;53395;37.360;-122.046;2023-02-15T17:05:17;0.80;;;0.30;;
66542;SDS011;53395;37.360;-122.046;2023-02-15T17:08:04;0.73;;;0.30;;
66542;SDS011;53395;37.360;-122.046;2023-02-15T17:10:35;0.70;;;0.20;;
66542;SDS011;53395;37.360;-122.046;2023-02-15T17:13:22;0.95;;;0.35;;
66542;SDS011;53395;37.360;-122.046;2023-02-15T17:18:38;1.15;;;0.45;;